createdAt,value
2018-09-06T00:01:21.806Z,90.30
2018-09-06T00:03:25.350Z,90.30
2018-09-06T00:05:29.136Z,90.40
2018-09-06T00:07:33.208Z,90.40
2018-09-06T00:09:36.828Z,90.30
2018-09-06T00:11:40.515Z,90.20
2018-09-06T00:13:44.092Z,90.10
2018-09-06T00:15:47.974Z,90.10
2018-09-06T00:17:51.570Z,90.30
2018-09-06T00:19:55.358Z,90.20
2018-09-06T00:21:58.900Z,90.00
2018-09-06T00:24:02.517Z,90.20
2018-09-06T00:26:06.223Z,90.40
2018-09-06T00:28:09.978Z,90.50
2018-09-06T00:30:13.790Z,90.40
2018-09-06T00:32:17.356Z,90.60
2018-09-06T00:34:22.067Z,90.60
2018-09-06T00:36:25.679Z,90.30
2018-09-06T00:38:29.260Z,90.40
2018-09-06T00:40:32.881Z,90.40
2018-09-06T00:42:36.673Z,90.40
2018-09-06T00:44:40.305Z,90.20
2018-09-06T00:46:43.989Z,90.30
2018-09-06T00:48:47.718Z,90.20
2018-09-06T00:50:51.485Z,90.20
2018-09-06T00:52:55.055Z,90.00
2018-09-06T00:54:58.830Z,90.00
2018-09-06T00:57:02.496Z,89.90
2018-09-06T00:59:06.136Z,90.10
2018-09-06T01:01:09.986Z,90.40
2018-09-06T01:03:13.800Z,90.70
2018-09-06T01:05:17.442Z,90.90
2018-09-06T01:07:20.954Z,91.30
2018-09-06T01:09:24.500Z,91.00
2018-09-06T01:11:28.092Z,90.60
2018-09-06T01:13:31.797Z,90.30
2018-09-06T01:15:35.338Z,90.10
2018-09-06T01:17:39.047Z,89.90
2018-09-06T01:19:42.925Z,89.60
2018-09-06T01:21:46.481Z,89.50
2018-09-06T01:23:50.096Z,89.40
2018-09-06T01:25:53.634Z,89.90
2018-09-06T01:27:57.470Z,90.00
2018-09-06T01:30:01.173Z,89.80
2018-09-06T01:32:04.683Z,89.90
2018-09-06T01:34:08.232Z,90.10
2018-09-06T01:36:16.906Z,90.50
2018-09-06T01:38:20.454Z,90.20
2018-09-06T01:40:24.033Z,90.20
2018-09-06T01:42:28.238Z,90.20
2018-09-06T01:44:31.812Z,90.00
2018-09-06T01:46:36.444Z,89.90
2018-09-06T01:48:40.082Z,90.10
2018-09-06T01:50:43.630Z,90.10
2018-09-06T01:52:47.239Z,90.10
2018-09-06T01:54:50.831Z,90.00
2018-09-06T01:56:54.367Z,89.60
2018-09-06T01:58:58.056Z,89.90
2018-09-06T02:01:01.639Z,89.70
2018-09-06T02:03:05.210Z,89.60
2018-09-06T02:05:08.938Z,89.50
2018-09-06T02:07:12.703Z,89.30
2018-09-06T02:09:16.264Z,89.20
2018-09-06T02:11:20.034Z,89.30
2018-09-06T02:13:23.691Z,90.10
2018-09-06T02:15:27.632Z,90.20
2018-09-06T02:17:31.165Z,90.40
2018-09-06T02:19:34.744Z,90.40
2018-09-06T02:21:38.376Z,90.20
2018-09-06T02:23:41.928Z,90.20
2018-09-06T02:25:45.437Z,90.10
2018-09-06T02:27:49.150Z,90.20
2018-09-06T02:29:52.939Z,90.30
2018-09-06T02:31:56.594Z,90.30
2018-09-06T02:34:00.135Z,90.20
2018-09-06T02:36:03.771Z,90.20
2018-09-06T02:38:07.478Z,90.00
2018-09-06T02:40:15.210Z,90.10
2018-09-06T02:42:19.183Z,90.00
2018-09-06T02:44:29.686Z,89.60
2018-09-06T02:46:33.229Z,89.70
2018-09-06T02:48:38.935Z,89.90
2018-09-06T02:50:47.737Z,90.20
2018-09-06T02:52:52.022Z,90.20
2018-09-06T02:54:55.561Z,90.40
2018-09-06T02:56:59.091Z,90.30
2018-09-06T02:59:02.615Z,90.10
2018-09-06T03:01:06.383Z,90.00
2018-09-06T03:03:10.114Z,89.20
2018-09-06T03:05:13.638Z,89.20
2018-09-06T03:07:17.177Z,89.60
2018-09-06T03:09:22.193Z,89.80
2018-09-06T03:11:29.938Z,90.00
2018-09-06T03:13:33.711Z,90.10
2018-09-06T03:15:37.543Z,90.20
2018-09-06T03:17:41.187Z,90.10
2018-09-06T03:19:44.835Z,90.00
2018-09-06T03:21:48.399Z,90.00
2018-09-06T03:23:52.074Z,90.10
2018-09-06T03:25:55.613Z,90.10
2018-09-06T03:27:59.413Z,90.50
2018-09-06T03:30:03.000Z,90.50
2018-09-06T03:32:06.620Z,90.60
2018-09-06T03:34:10.145Z,90.40
2018-09-06T03:36:14.277Z,90.30
2018-09-06T03:38:17.817Z,90.00
2018-09-06T03:40:21.523Z,89.40
2018-09-06T03:42:25.113Z,89.80
2018-09-06T03:44:28.808Z,89.60
2018-09-06T03:46:32.448Z,89.30
2018-09-06T03:48:36.097Z,89.20
2018-09-06T03:50:39.665Z,89.00
2018-09-06T03:52:43.333Z,89.20
2018-09-06T03:54:46.828Z,89.20
2018-09-06T03:56:50.443Z,89.20
2018-09-06T03:58:54.179Z,89.50
2018-09-06T04:00:57.715Z,89.60
2018-09-06T04:03:01.235Z,89.80
2018-09-06T04:05:04.912Z,89.70
2018-09-06T04:07:08.815Z,89.80
2018-09-06T04:09:12.625Z,89.40
2018-09-06T04:11:16.212Z,88.80
2018-09-06T04:13:19.914Z,89.20
2018-09-06T04:15:23.390Z,89.10
2018-09-06T04:17:26.940Z,89.30
2018-09-06T04:19:30.634Z,89.90
2018-09-06T04:21:34.118Z,90.20
2018-09-06T04:23:37.700Z,90.10
2018-09-06T04:25:41.532Z,90.10
2018-09-06T04:27:45.282Z,90.10
2018-09-06T04:29:48.747Z,90.00
2018-09-06T04:31:52.251Z,90.10
2018-09-06T04:33:55.804Z,89.90
2018-09-06T04:35:59.442Z,89.60
2018-09-06T04:38:02.940Z,89.00
2018-09-06T04:40:06.548Z,89.20
2018-09-06T04:42:10.170Z,89.30
2018-09-06T04:44:13.672Z,89.90
2018-09-06T04:46:17.307Z,90.00
2018-09-06T04:48:20.987Z,89.70
2018-09-06T04:50:24.593Z,89.30
2018-09-06T04:52:28.159Z,89.30
2018-09-06T04:54:31.740Z,89.40
2018-09-06T04:56:35.259Z,89.50
2018-09-06T04:58:38.825Z,89.40
2018-09-06T05:00:42.302Z,89.40
2018-09-06T05:02:45.861Z,89.20
2018-09-06T05:04:49.626Z,89.30
2018-09-06T05:06:53.121Z,89.40
2018-09-06T05:08:56.767Z,89.80
2018-09-06T05:11:00.496Z,90.20
2018-09-06T05:13:04.049Z,90.30
2018-09-06T05:15:07.643Z,90.20
2018-09-06T05:17:11.196Z,90.20
2018-09-06T05:19:14.743Z,90.00
2018-09-06T05:21:18.296Z,89.60
2018-09-06T05:23:21.860Z,89.20
2018-09-06T05:25:25.355Z,89.10
2018-09-06T05:27:28.854Z,89.00
2018-09-06T05:29:32.535Z,88.80
2018-09-06T05:31:36.005Z,88.80
2018-09-06T05:33:39.576Z,89.30
2018-09-06T05:35:43.169Z,89.70
2018-09-06T05:37:46.902Z,89.60
2018-09-06T05:39:50.645Z,89.70
2018-09-06T05:41:54.149Z,90.00
2018-09-06T05:43:57.647Z,90.20
2018-09-06T05:46:01.363Z,90.10
2018-09-06T05:48:04.913Z,89.80
2018-09-06T05:50:08.519Z,90.10
2018-09-06T05:52:12.045Z,90.20
2018-09-06T05:54:15.574Z,90.00
2018-09-06T05:56:19.108Z,89.60
2018-09-06T05:58:22.638Z,89.00
2018-09-06T06:00:31.385Z,88.40
2018-09-06T06:02:35.079Z,88.00
2018-09-06T06:04:38.627Z,87.80
2018-09-06T06:06:42.264Z,88.00
2018-09-06T06:08:47.568Z,88.50
2018-09-06T06:10:51.170Z,89.80
2018-09-06T06:12:55.012Z,90.50
2018-09-06T06:14:58.556Z,90.10
2018-09-06T06:17:02.070Z,90.00
2018-09-06T06:19:05.575Z,89.80
2018-09-06T06:21:09.323Z,90.00
2018-09-06T06:23:12.893Z,90.50
2018-09-06T06:25:16.475Z,90.70
2018-09-06T06:27:20.109Z,90.80
2018-09-06T06:29:23.745Z,90.80
2018-09-06T06:31:27.341Z,90.90
2018-09-06T06:33:30.868Z,91.10
2018-09-06T06:35:34.408Z,90.80
2018-09-06T06:37:37.948Z,90.80
2018-09-06T06:39:41.505Z,90.80
2018-09-06T06:41:45.186Z,90.90
2018-09-06T06:43:48.872Z,91.10
2018-09-06T06:45:52.463Z,91.10
2018-09-06T06:47:55.981Z,91.00
2018-09-06T06:49:59.544Z,90.70
2018-09-06T06:52:03.152Z,90.40
2018-09-06T06:54:06.990Z,90.30
2018-09-06T06:56:10.499Z,90.20
2018-09-06T06:58:14.014Z,90.20
2018-09-06T07:00:18.381Z,90.10
2018-09-06T07:02:21.916Z,90.00
2018-09-06T07:04:25.522Z,90.30
2018-09-06T07:06:28.938Z,90.00
2018-09-06T07:08:32.711Z,90.30
2018-09-06T07:10:36.323Z,90.30
2018-09-06T07:12:39.864Z,90.30
2018-09-06T07:14:43.476Z,90.30
2018-09-06T07:16:47.211Z,90.80
2018-09-06T07:18:50.784Z,91.20
2018-09-06T07:20:54.516Z,91.20
2018-09-06T07:22:58.100Z,91.30
2018-09-06T07:25:02.172Z,91.50
2018-09-06T07:27:05.783Z,91.00
2018-09-06T07:29:09.427Z,91.20
2018-09-06T07:31:12.960Z,91.20
2018-09-06T07:33:16.491Z,91.00
2018-09-06T07:35:20.109Z,91.00
2018-09-06T07:37:24.146Z,91.00
2018-09-06T07:39:27.760Z,91.40
2018-09-06T07:41:31.333Z,91.70
2018-09-06T07:43:35.043Z,91.80
2018-09-06T07:45:38.639Z,91.90
2018-09-06T07:47:42.253Z,92.00
2018-09-06T07:49:45.852Z,91.60
2018-09-06T07:51:49.508Z,91.70
2018-09-06T07:53:53.085Z,91.50
2018-09-06T07:55:56.627Z,91.60
2018-09-06T07:58:00.224Z,91.30
2018-09-06T08:00:03.950Z,91.60
2018-09-06T08:02:07.513Z,91.70
2018-09-06T08:04:11.119Z,91.70
2018-09-06T08:06:14.702Z,91.60
2018-09-06T08:08:18.616Z,91.50
2018-09-06T08:10:22.275Z,91.30
2018-09-06T08:12:25.799Z,91.70
2018-09-06T08:14:29.366Z,92.10
2018-09-06T08:16:33.135Z,92.00
2018-09-06T08:18:36.763Z,91.50
2018-09-06T08:20:40.369Z,91.60
2018-09-06T08:22:44.124Z,91.30
2018-09-06T08:24:47.699Z,91.30
2018-09-06T08:26:51.238Z,91.20
2018-09-06T08:28:54.769Z,91.10
2018-09-06T08:30:58.563Z,91.40
2018-09-06T08:33:01.940Z,91.60
2018-09-06T08:35:05.718Z,91.80
2018-09-06T08:37:09.308Z,91.70
2018-09-06T08:39:12.952Z,91.10
2018-09-06T08:41:16.504Z,91.30
2018-09-06T08:43:20.032Z,91.20
2018-09-06T08:45:23.881Z,91.00
2018-09-06T08:47:27.550Z,90.60
2018-09-06T08:49:31.122Z,90.70
2018-09-06T08:51:34.644Z,90.40
2018-09-06T08:53:38.301Z,90.20
2018-09-06T08:55:41.856Z,90.20
2018-09-06T08:57:45.363Z,90.20
2018-09-06T08:59:48.880Z,90.20
2018-09-06T09:01:52.498Z,91.10
2018-09-06T09:03:56.473Z,91.30
2018-09-06T09:06:00.373Z,91.80
2018-09-06T09:08:04.140Z,92.00
2018-09-06T09:10:07.786Z,91.80
2018-09-06T09:12:11.309Z,91.50
2018-09-06T09:14:14.832Z,92.00
2018-09-06T09:16:18.407Z,92.10
2018-09-06T09:18:22.251Z,91.80
2018-09-06T09:20:25.816Z,91.70
2018-09-06T09:22:29.341Z,91.60
2018-09-06T09:24:33.140Z,91.40
2018-09-06T09:26:37.011Z,91.90
2018-09-06T09:28:40.605Z,92.70
2018-09-06T09:30:44.229Z,92.80
2018-09-06T09:32:47.715Z,92.80
2018-09-06T09:34:51.241Z,92.60
2018-09-06T09:36:54.871Z,92.70
2018-09-06T09:38:58.563Z,92.80
2018-09-06T09:41:02.250Z,93.10
2018-09-06T09:43:06.223Z,92.40
2018-09-06T09:45:09.869Z,91.90
2018-09-06T09:49:16.225Z,92.50
2018-09-06T09:51:19.754Z,92.10
2018-09-06T09:53:23.256Z,92.20
2018-09-06T09:55:26.771Z,91.60
2018-09-06T09:57:30.409Z,92.60
2018-09-06T09:59:34.049Z,91.60
2018-09-06T10:01:47.743Z,91.60
2018-09-06T10:03:56.795Z,91.40
2018-09-06T10:06:05.610Z,91.20
2018-09-06T10:08:14.441Z,90.90
2018-09-06T10:10:17.986Z,90.90
2018-09-06T10:12:21.584Z,90.70
2018-09-06T10:14:25.157Z,90.60
2018-09-06T10:16:28.727Z,91.30
2018-09-06T10:18:32.408Z,90.60
2018-09-06T10:20:36.039Z,90.60
2018-09-06T10:22:39.683Z,90.20
2018-09-06T10:24:43.262Z,88.40
2018-09-06T10:26:46.859Z,88.40
2018-09-06T10:28:50.346Z,88.10
2018-09-06T10:30:53.933Z,89.00
2018-09-06T10:32:57.798Z,87.50
2018-09-06T10:35:01.463Z,87.30
2018-09-06T10:37:05.075Z,87.60
2018-09-06T10:39:09.827Z,87.10
2018-09-06T10:41:13.451Z,88.40
2018-09-06T10:43:16.984Z,87.10
2018-09-06T10:45:20.479Z,86.70
2018-09-06T10:47:24.051Z,82.80
2018-09-06T10:49:27.588Z,84.60
2018-09-06T10:51:31.253Z,82.90
2018-09-06T10:53:34.834Z,82.10
2018-09-06T10:55:38.315Z,81.00
2018-09-06T10:57:48.471Z,80.80
2018-09-06T10:59:52.074Z,80.10
2018-09-06T11:01:55.635Z,80.20
2018-09-06T11:03:59.609Z,80.80
2018-09-06T11:06:03.327Z,80.30
2018-09-06T11:08:07.056Z,80.10
2018-09-06T11:10:10.708Z,78.30
2018-09-06T11:12:14.219Z,76.00
2018-09-06T11:14:17.726Z,76.20
2018-09-06T11:16:21.806Z,76.50
2018-09-06T11:18:25.333Z,75.80
2018-09-06T11:20:28.893Z,76.60
2018-09-06T11:22:32.695Z,74.50
2018-09-06T11:24:36.068Z,75.90
2018-09-06T11:26:39.568Z,74.20
2018-09-06T11:28:43.097Z,74.40
2018-09-06T11:30:46.643Z,74.20
2018-09-06T11:32:50.225Z,74.90
2018-09-06T11:34:53.788Z,74.00
2018-09-06T11:36:57.577Z,74.70
2018-09-06T11:39:01.120Z,74.90
2018-09-06T11:41:04.624Z,74.60
2018-09-06T11:43:08.287Z,74.40
2018-09-06T11:45:11.803Z,74.70
2018-09-06T11:47:15.405Z,72.90
2018-09-06T11:49:18.875Z,74.30
2018-09-06T11:51:22.555Z,74.70
2018-09-06T11:53:26.181Z,75.70
2018-09-06T11:55:29.806Z,76.90
2018-09-06T11:57:33.355Z,76.50
2018-09-06T11:59:36.928Z,75.90
2018-09-06T12:01:40.680Z,75.10
2018-09-06T12:03:44.384Z,76.50
2018-09-06T12:05:47.920Z,76.70
2018-09-06T12:07:51.544Z,76.40
2018-09-06T12:09:55.171Z,76.50
2018-09-06T12:11:58.711Z,76.30
2018-09-06T12:14:02.295Z,76.20
2018-09-06T12:16:05.837Z,76.40
2018-09-06T12:18:09.354Z,76.50
2018-09-06T12:20:12.978Z,76.10
2018-09-06T12:22:16.484Z,75.70
2018-09-06T12:24:20.335Z,75.60
2018-09-06T12:26:24.001Z,74.70
2018-09-06T12:28:27.544Z,73.20
2018-09-06T12:30:31.316Z,74.30
2018-09-06T12:32:34.949Z,75.80
2018-09-06T12:34:38.532Z,74.60
2018-09-06T12:36:42.140Z,76.30
2018-09-06T12:38:45.761Z,75.60
2018-09-06T12:40:49.373Z,74.60
2018-09-06T12:42:52.871Z,76.00
2018-09-06T12:44:56.479Z,76.10
2018-09-06T12:46:59.991Z,75.90
2018-09-06T12:49:03.527Z,76.00
2018-09-06T12:51:07.092Z,76.40
2018-09-06T12:53:10.703Z,76.80
2018-09-06T12:55:14.420Z,75.80
2018-09-06T12:57:18.203Z,76.00
2018-09-06T12:59:22.203Z,75.70
2018-09-06T13:01:25.752Z,75.80
2018-09-06T13:03:29.348Z,75.20
2018-09-06T13:05:32.858Z,75.60
2018-09-06T13:07:36.409Z,75.20
2018-09-06T13:09:39.924Z,75.70
2018-09-06T13:11:43.612Z,75.80
2018-09-06T13:13:47.207Z,76.40
2018-09-06T13:15:50.929Z,76.90
2018-09-06T13:17:54.492Z,76.50
2018-09-06T13:19:58.444Z,77.00
2018-09-06T13:22:01.946Z,76.70
2018-09-06T13:24:05.479Z,77.00
2018-09-06T13:26:09.291Z,76.40
2018-09-06T13:28:12.957Z,77.20
2018-09-06T13:30:16.533Z,77.40
2018-09-06T13:32:20.099Z,77.50
2018-09-06T13:34:23.891Z,77.10
2018-09-06T13:36:27.480Z,76.90
2018-09-06T13:38:31.056Z,76.50
2018-09-06T13:40:34.576Z,75.80
2018-09-06T13:42:38.113Z,74.90
2018-09-06T13:44:41.663Z,76.40
2018-09-06T13:46:45.314Z,76.50
2018-09-06T13:48:48.824Z,76.90
2018-09-06T13:50:52.329Z,75.80
2018-09-06T13:52:55.848Z,74.90
2018-09-06T13:54:59.443Z,74.00
2018-09-06T13:57:03.106Z,71.00
2018-09-06T13:59:06.727Z,72.50
2018-09-06T14:01:10.417Z,72.40
2018-09-06T14:03:13.936Z,70.20
2018-09-06T14:05:17.464Z,70.50
2018-09-06T14:07:21.083Z,70.00
2018-09-06T14:09:24.884Z,69.80
2018-09-06T14:11:28.389Z,69.30
2018-09-06T14:13:31.903Z,69.70
2018-09-06T14:15:35.753Z,70.70
2018-09-06T14:17:39.328Z,69.80
2018-09-06T14:19:42.849Z,70.70
2018-09-06T14:21:46.498Z,71.00
2018-09-06T14:23:50.116Z,71.50
2018-09-06T14:25:53.764Z,71.70
2018-09-06T14:27:57.575Z,71.50
2018-09-06T14:30:01.118Z,71.00
2018-09-06T14:32:04.675Z,71.20
2018-09-06T14:34:08.207Z,71.30
2018-09-06T14:36:11.778Z,71.30
2018-09-06T14:38:15.465Z,70.50
2018-09-06T14:40:18.947Z,69.70
2018-09-06T14:42:22.467Z,69.90
2018-09-06T14:44:26.030Z,69.90
2018-09-06T14:46:29.564Z,69.90
2018-09-06T14:48:33.248Z,70.40
2018-09-06T14:50:36.806Z,70.10
2018-09-06T14:52:40.355Z,70.20
2018-09-06T14:54:43.862Z,70.70
2018-09-06T14:56:47.384Z,70.20
2018-09-06T14:58:51.051Z,70.10
2018-09-06T15:00:54.599Z,70.00
2018-09-06T15:02:58.141Z,69.80
2018-09-06T15:05:01.695Z,70.20
2018-09-06T15:07:05.935Z,70.30
2018-09-06T15:09:09.828Z,71.10
2018-09-06T15:11:13.380Z,71.80
2018-09-06T15:13:17.128Z,72.80
2018-09-06T15:15:20.686Z,72.10
2018-09-06T15:17:24.365Z,72.40
2018-09-06T15:19:28.011Z,71.90
2018-09-06T15:21:31.700Z,71.90
2018-09-06T15:23:35.172Z,73.30
2018-09-06T15:25:38.831Z,73.60
2018-09-06T15:27:42.326Z,73.90
2018-09-06T15:29:45.933Z,74.00
2018-09-06T15:31:49.472Z,74.00
2018-09-06T15:33:53.201Z,72.80
2018-09-06T15:35:56.763Z,73.20
2018-09-06T15:38:00.625Z,73.80
2018-09-06T15:40:04.195Z,73.60
2018-09-06T15:42:07.844Z,74.20
2018-09-06T15:44:11.405Z,73.90
2018-09-06T15:46:14.955Z,73.20
2018-09-06T15:48:18.652Z,71.70
2018-09-06T15:50:22.328Z,71.90
2018-09-06T15:52:25.847Z,71.20
2018-09-06T15:54:29.335Z,71.00
2018-09-06T15:56:32.887Z,71.20
2018-09-06T15:58:36.507Z,70.20
2018-09-06T16:00:40.125Z,70.40
2018-09-06T16:02:43.647Z,70.10
2018-09-06T16:04:47.346Z,69.60
2018-09-06T16:06:50.952Z,68.70
2018-09-06T16:08:54.455Z,69.10
2018-09-06T16:10:58.095Z,69.10
2018-09-06T16:13:01.617Z,69.00
2018-09-06T16:15:05.272Z,69.00
2018-09-06T16:17:08.951Z,69.90
2018-09-06T16:19:12.457Z,70.10
2018-09-06T16:21:15.980Z,70.20
2018-09-06T16:23:19.668Z,70.20
2018-09-06T16:25:24.157Z,70.00
2018-09-06T16:27:27.676Z,70.70
2018-09-06T16:29:31.197Z,70.90
2018-09-06T16:31:34.828Z,70.70
2018-09-06T16:33:38.381Z,70.50
2018-09-06T16:35:41.924Z,70.50
2018-09-06T16:37:45.462Z,71.50
2018-09-06T16:39:49.000Z,71.00
2018-09-06T16:41:52.531Z,71.60
2018-09-06T16:43:56.110Z,71.70
2018-09-06T16:45:59.674Z,71.60
2018-09-06T16:48:03.398Z,71.70
2018-09-06T16:50:06.928Z,70.80
2018-09-06T16:52:10.549Z,71.20
2018-09-06T16:54:14.077Z,72.40
2018-09-06T16:56:17.614Z,73.50
2018-09-06T16:58:21.384Z,74.30
2018-09-06T17:00:24.895Z,74.70
2018-09-06T17:02:28.428Z,75.10
2018-09-06T17:04:31.964Z,74.90
2018-09-06T17:06:35.479Z,75.00
2018-09-06T17:08:39.193Z,75.30
2018-09-06T17:10:42.740Z,75.20
2018-09-06T17:12:46.486Z,75.90
2018-09-06T17:14:50.223Z,76.20
2018-09-06T17:16:53.780Z,76.60
2018-09-06T17:18:57.371Z,77.30
2018-09-06T17:21:01.130Z,77.40
2018-09-06T17:23:04.758Z,77.50
2018-09-06T17:25:08.329Z,77.90
2018-09-06T17:27:11.827Z,78.10
2018-09-06T17:29:15.374Z,78.60
2018-09-06T17:31:19.116Z,78.90
2018-09-06T17:33:22.815Z,78.90
2018-09-06T17:35:26.364Z,79.30
2018-09-06T17:37:29.940Z,79.90
2018-09-06T17:39:33.543Z,80.20
2018-09-06T17:41:37.110Z,80.30
2018-09-06T17:43:40.674Z,79.70
2018-09-06T17:45:44.286Z,79.80
2018-09-06T17:47:47.943Z,80.40
2018-09-06T17:49:51.709Z,80.20
2018-09-06T17:51:55.238Z,80.60
2018-09-06T17:53:58.944Z,80.80
2018-09-06T17:56:02.473Z,80.90
2018-09-06T17:58:06.244Z,80.70
2018-09-06T18:00:09.840Z,81.00
2018-09-06T18:02:13.373Z,80.90
2018-09-06T18:04:17.027Z,80.60
2018-09-06T18:06:20.555Z,80.40
2018-09-06T18:08:24.104Z,79.90
2018-09-06T18:10:27.639Z,79.70
2018-09-06T18:12:31.196Z,80.40
2018-09-06T18:14:34.903Z,80.70
2018-09-06T18:16:38.630Z,80.20
2018-09-06T18:18:42.394Z,80.30
2018-09-06T18:20:46.022Z,79.80
2018-09-06T18:22:49.644Z,79.60
2018-09-06T18:24:53.395Z,79.70
2018-09-06T18:26:57.006Z,79.90
2018-09-06T18:29:00.622Z,80.40
2018-09-06T18:31:04.248Z,81.40
2018-09-06T18:33:07.576Z,82.70
2018-09-06T18:35:11.394Z,80.70
2018-09-06T18:37:15.022Z,80.50
2018-09-06T18:39:18.568Z,82.50
2018-09-06T18:41:22.073Z,86.10
2018-09-06T18:43:25.633Z,86.70
2018-09-06T18:45:29.379Z,88.80
2018-09-06T18:47:33.175Z,89.40
2018-09-06T18:49:37.046Z,90.00
2018-09-06T18:51:40.579Z,90.00
2018-09-06T18:53:44.213Z,89.70
2018-09-06T18:55:47.809Z,90.00
2018-09-06T18:57:51.487Z,90.00
2018-09-06T18:59:55.092Z,90.40
2018-09-06T19:01:58.719Z,90.60
2018-09-06T19:04:02.280Z,92.30
2018-09-06T19:06:06.064Z,92.30
2018-09-06T19:08:09.838Z,91.70
2018-09-06T19:10:13.487Z,92.00
2018-09-06T19:12:17.093Z,92.70
2018-09-06T19:14:20.660Z,94.30
2018-09-06T19:16:24.320Z,94.00
2018-09-06T19:18:27.915Z,93.40
2018-09-06T19:20:31.554Z,94.10
2018-09-06T19:22:35.090Z,94.70
2018-09-06T19:24:38.774Z,95.50
2018-09-06T19:26:42.500Z,96.50
2018-09-06T19:28:46.081Z,96.80
2018-09-06T19:30:49.697Z,97.00
2018-09-06T19:32:53.539Z,97.60
2018-09-06T19:34:57.340Z,97.80
2018-09-06T19:37:00.880Z,97.30
2018-09-06T19:39:08.623Z,97.10
2018-09-06T19:41:12.164Z,96.80
2018-09-06T19:43:15.744Z,96.60
2018-09-06T19:45:19.404Z,96.70
2018-09-06T19:47:23.259Z,97.10
2018-09-06T19:49:26.864Z,97.20
2018-09-06T19:51:30.450Z,97.30
2018-09-06T19:53:33.976Z,96.80
2018-09-06T19:55:37.560Z,96.70
2018-09-06T19:57:41.192Z,97.30
2018-09-06T19:59:44.891Z,96.70
2018-09-06T20:01:48.734Z,97.20
2018-09-06T20:03:52.421Z,97.10
2018-09-06T20:05:56.094Z,97.00
2018-09-06T20:07:59.679Z,97.10
2018-09-06T20:10:03.395Z,97.60
2018-09-06T20:12:06.980Z,97.10
2018-09-06T20:14:10.567Z,97.70
2018-09-06T20:16:14.311Z,96.90
2018-09-06T20:18:17.939Z,96.30
2018-09-06T20:20:21.611Z,95.90
2018-09-06T20:22:25.227Z,95.70
2018-09-06T20:24:28.886Z,95.10
2018-09-06T20:26:32.657Z,95.20
2018-09-06T20:28:36.283Z,94.30
2018-09-06T20:30:40.967Z,95.00
2018-09-06T20:32:49.416Z,94.40
2018-09-06T20:34:53.079Z,94.10
2018-09-06T20:36:56.696Z,93.70
2018-09-06T20:39:00.304Z,94.30
2018-09-06T20:41:03.907Z,94.60
2018-09-06T20:43:07.525Z,95.80
2018-09-06T20:45:11.094Z,96.00
2018-09-06T20:47:14.607Z,96.90
2018-09-06T20:49:18.123Z,96.90
2018-09-06T20:51:21.688Z,97.00
2018-09-06T20:53:25.260Z,96.10
2018-09-06T20:55:28.831Z,96.10
2018-09-06T20:57:32.600Z,95.20
2018-09-06T20:59:36.179Z,94.80
2018-09-06T21:01:39.892Z,94.40
2018-09-06T21:03:43.435Z,94.10
2018-09-06T21:05:47.087Z,94.00
2018-09-06T21:07:50.693Z,94.20
2018-09-06T21:09:54.264Z,93.90
2018-09-06T21:11:57.805Z,93.50
2018-09-06T21:14:01.498Z,93.70
2018-09-06T21:16:05.160Z,93.90
2018-09-06T21:18:08.724Z,93.60
2018-09-06T21:20:12.281Z,93.20
2018-09-06T21:22:15.872Z,93.50
2018-09-06T21:24:20.032Z,93.00
2018-09-06T21:26:23.678Z,92.70
2018-09-06T21:28:27.180Z,92.20
2018-09-06T21:30:30.730Z,92.50
2018-09-06T21:32:34.293Z,92.50
2018-09-06T21:34:43.250Z,92.90
2018-09-06T21:36:49.872Z,92.80
2018-09-06T21:38:54.703Z,93.30
2018-09-06T21:41:01.902Z,93.20
2018-09-06T21:43:09.066Z,93.20
2018-09-06T21:45:14.548Z,93.30
2018-09-06T21:47:20.304Z,93.90
2018-09-06T21:49:26.114Z,93.50
2018-09-06T21:51:32.309Z,93.50
2018-09-06T21:53:38.357Z,93.80
2018-09-06T21:55:46.153Z,93.60
2018-09-06T21:57:50.005Z,93.60
2018-09-06T21:59:57.018Z,93.50
2018-09-06T22:02:07.544Z,93.10
2018-09-06T22:04:11.616Z,93.00
2018-09-06T22:06:19.477Z,92.90
2018-09-06T22:08:25.236Z,92.90
2018-09-06T22:10:30.076Z,93.00
2018-09-06T22:12:33.731Z,92.70
2018-09-06T22:14:37.294Z,93.00
2018-09-06T22:16:40.851Z,93.70
2018-09-06T22:18:44.623Z,93.60
2018-09-06T22:20:48.227Z,93.50
2018-09-06T22:22:51.771Z,93.60
2018-09-06T22:24:55.309Z,93.60
2018-09-06T22:26:58.973Z,93.50
2018-09-06T22:29:02.716Z,93.70
2018-09-06T22:31:06.501Z,93.20
2018-09-06T22:33:10.136Z,93.90
2018-09-06T22:35:13.689Z,95.10
2018-09-06T22:37:17.218Z,95.00
2018-09-06T22:39:20.802Z,94.80
2018-09-06T22:41:24.324Z,94.30
2018-09-06T22:43:27.910Z,93.90
2018-09-06T22:45:31.503Z,94.40
2018-09-06T22:47:35.039Z,94.20
2018-09-06T22:49:38.574Z,94.50
2018-09-06T22:51:42.098Z,94.40
2018-09-06T22:53:45.649Z,94.20
2018-09-06T22:55:49.396Z,94.30
2018-09-06T22:57:52.921Z,94.90
2018-09-06T22:59:56.475Z,95.10
2018-09-06T23:02:00.052Z,95.30
2018-09-06T23:04:03.696Z,94.90
2018-09-06T23:06:07.757Z,94.70
2018-09-06T23:08:11.368Z,94.60
2018-09-06T23:10:15.018Z,94.80
2018-09-06T23:12:18.574Z,94.40
2018-09-06T23:14:22.271Z,94.60
2018-09-06T23:16:26.370Z,95.00
2018-09-06T23:18:29.954Z,94.90
2018-09-06T23:20:33.468Z,94.80
2018-09-06T23:22:38.852Z,94.70
2018-09-06T23:24:42.387Z,94.60
2018-09-06T23:26:46.062Z,93.80
2018-09-06T23:28:49.639Z,94.20
2018-09-06T23:30:53.310Z,94.10
2018-09-06T23:32:56.829Z,93.70
2018-09-06T23:35:00.537Z,93.60
2018-09-06T23:37:05.096Z,93.30
2018-09-06T23:39:08.656Z,93.40
2018-09-06T23:41:12.403Z,93.80
2018-09-06T23:43:16.058Z,93.70
2018-09-06T23:45:19.613Z,93.40
2018-09-06T23:47:23.502Z,93.50
2018-09-06T23:49:27.334Z,93.20
2018-09-06T23:51:30.879Z,92.90
2018-09-06T23:53:34.479Z,92.90
2018-09-06T23:55:38.041Z,92.90
2018-09-06T23:57:41.799Z,92.90
2018-09-06T23:59:45.329Z,92.70
